• Join FlightAware (Why Join?)
  • Login
  • US Flag 
12:49PM EST


 

Airport Tracker/Info


-or-


 

Live Flight TrackerFlight Track Log ✈ N693EE ✈ 17-Apr-2014 ✈ KFMN - KPHX

Flight Track Log - Related Links

Times and Time Zones

All times are in EDT time to prevent confusion due to time zone crossing. See the N693EE flight status page for this flight to view local times or setup timezone preferences in your user account.

Time Position Orientation Groundspeed Altitude Reporting Facility
EDT Latitude Longitude Course Direction KTS MPH feet Rate Location/Type
09:39AM 36.7400 -108.2025 203° Southwest 124 143 6,200  Level Albuquerque Center
09:40AM 36.3517 -108.4178 200° South  Level FlightAware Approximate
09:40AM 36.7069 -108.1986 175° South 165 190 7,600  Level Albuquerque Center
09:41AM 36.2964 -108.4440 203° Southwest  Level FlightAware Approximate
09:41AM 36.6647 -108.2217 204° Southwest 168 193 9,200  Level Albuquerque Center
09:42AM 36.2419 -108.4728 203° Southwest  Level FlightAware Approximate
09:42AM 36.6131 -108.2494 203° Southwest 175 201 11,300  Level Albuquerque Center
09:43AM 36.1874 -108.5015 203° Southwest  Level FlightAware Approximate
09:43AM 36.5700 -108.2736 204° Southwest 176 203 12,900  Level Albuquerque Center
09:44AM 36.1329 -108.5302 203° Southwest  Level FlightAware Approximate
09:44AM 36.5256 -108.2975 203° Southwest 178 205 14,400  Level Denver Center
09:45AM 36.0784 -108.5589 203° Southwest  Level FlightAware Approximate
09:45AM 36.4711 -108.3283 204° Southwest 186 214 16,100  Level Denver Center
09:46AM 36.4297 -108.3508 204° Southwest 194 223 17,400 1,320 Climbing Denver Center
09:48AM 36.3642 -108.3878 204° Southwest 200 230 19,100 1,440 Climbing Denver Center
09:49AM 36.3025 -108.4222 204° Southwest 210 242 20,700 1,320 Climbing Denver Center
09:50AM 36.2378 -108.4578 204° Southwest 221 254 21,900 600 Climbing Denver Center
09:51AM 36.1719 -108.4961 205° Southwest 257 296 22,000  Climbing Denver Center
09:52AM 36.1122 -108.5294 204° Southwest 280 322 22,000  Level Albuquerque Center
09:53AM 36.0389 -108.5681 203° Southwest 290 334 22,000  Level Albuquerque Center
09:54AM 35.9536 -108.6153 204° Southwest 293 337 22,000  Level Albuquerque Center
09:55AM 35.8808 -108.6544 204° Southwest 293 337 22,000  Level Albuquerque Center
09:56AM 35.8078 -108.6939 204° Southwest 294 338 22,000  Level Albuquerque Center
09:57AM 35.7233 -108.7397 204° Southwest 294 338 22,000  Level Albuquerque Center
09:58AM 35.6511 -108.7797 204° Southwest 294 338 22,000  Level Albuquerque Center
09:59AM 35.5778 -108.8192 204° Southwest 295 339 22,000  Level Albuquerque Center
10:00AM 35.4917 -108.8661 204° Southwest 298 343 22,000  Level Albuquerque Center
10:01AM 35.4411 -108.9333 227° Southwest 288 331 22,000  Level Albuquerque Center
10:02AM 35.3944 -109.0222 237° Southwest 281 323 22,000  Level Albuquerque Center
10:03AM 35.3536 -109.0981 237° Southwest 280 322 22,000  Level Albuquerque Center
10:04AM 35.3119 -109.1722 235° Southwest 280 322 22,000  Level Albuquerque Center
10:05AM 35.2636 -109.2608 236° Southwest 280 322 22,000  Level Albuquerque Center
10:06AM 35.2217 -109.3358 236° Southwest 280 322 22,000  Level Albuquerque Center
10:07AM 35.1725 -109.4231 235° Southwest 280 322 22,000  Level Albuquerque Center
10:08AM 35.1322 -109.4992 237° Southwest 280 322 22,000  Level Albuquerque Center
10:09AM 35.0906 -109.5733 236° Southwest 279 321 22,000  Level Albuquerque Center
10:10AM 35.0422 -109.6589 235° Southwest 278 320 22,000  Level Albuquerque Center
10:11AM 35.0017 -109.7339 237° Southwest 277 319 22,000  Level Albuquerque Center
10:12AM 34.9531 -109.8208 236° Southwest 277 319 22,000  Level Albuquerque Center
10:13AM 34.9106 -109.8928 234° Southwest 277 319 22,000  Level Albuquerque Center
10:14AM 34.8625 -109.9803 236° Southwest 277 319 22,000  Level Albuquerque Center
10:15AM 34.8203 -110.0533 235° Southwest 277 319 22,000  Level Albuquerque Center
10:16AM 34.7811 -110.1331 239° Southwest 284 327 22,000  Level Albuquerque Center
10:17AM 34.7439 -110.2247 244° Southwest 273 314 22,000  Level Albuquerque Center
10:18AM 34.7272 -110.3089 256° West 264 304 22,000  Level Albuquerque Center
10:19AM 34.7069 -110.4058 256° West 267 307 22,000  Level Albuquerque Center
10:20AM 34.6872 -110.4875 254° West 267 307 22,000  Level Albuquerque Center
10:21AM 34.6658 -110.5847 255° West 266 306 22,000  Level Albuquerque Center
10:22AM 34.6481 -110.6683 256° West 267 307 22,000  Level Albuquerque Center
10:23AM 34.6269 -110.7511 253° West 267 307 22,000  Level Albuquerque Center
10:24AM 34.6069 -110.8386 255° West 267 307 22,000  Level Albuquerque Center
10:25AM 34.5850 -110.9256 253° West 268 308 22,000  Level Albuquerque Center
10:26AM 34.4939 -110.9719 203° Southwest 291 335 22,000 -300 Level Albuquerque Center
10:27AM 34.4150 -110.9989 196° South 292 336 21,500 -960 Descending Albuquerque Center
10:28AM 34.3317 -111.0253 195° South 296 341 20,100 -1,320 Descending Albuquerque Center
10:30AM 34.2475 -111.0500 194° South 305 351 18,800 -1,320 Descending Albuquerque Center
10:31AM 34.1683 -111.0742 194° South 300 345 17,400 -1,380 Descending Albuquerque Center
10:32AM 34.1036 -111.1233 212° Southwest 286 329 16,000 -1,380 Descending Albuquerque Center
10:33AM 34.0517 -111.1886 226° Southwest 276 318 14,600 -1,560 Descending Albuquerque Center
10:34AM 33.9911 -111.2669 227° Southwest 269 310 12,900 -1,260 Descending Albuquerque Center
10:35AM 33.9406 -111.3317 227° Southwest 267 307 12,000 -480 Descending Albuquerque Center
10:36AM 33.8947 -111.3886 226° Southwest 238 274 12,000  Level Albuquerque Center
10:37AM 33.8536 -111.4422 227° Southwest 221 254 12,000  Level Albuquerque Center
10:38AM 33.8744 -111.4836 301° West 190 219 12,000  Level Albuquerque Center
10:39AM 33.9131 -111.4394 44° Northeast 190 219 12,000  Level Albuquerque Center
10:40AM 33.9503 -111.3950 45° Northeast 190 219 12,000  Level Albuquerque Center
10:41AM 33.9961 -111.3422 44° Northeast 191 220 12,000  Level Albuquerque Center
10:42AM 34.0050 -111.2883 79° East 197 227 12,000  Level Albuquerque Center
10:43AM 33.9581 -111.3133 204° Southwest 216 249 12,100  Climbing Albuquerque Center
10:44AM 33.9164 -111.3686 228° Southwest 220 253 12,000 -240 Descending Albuquerque Center
10:45AM 33.8714 -111.4236 225° Southwest 227 261 11,700 -720 Descending Albuquerque Center
10:46AM 33.8281 -111.4792 227° Southwest 227 261 10,600 -840 Descending Albuquerque Center
10:47AM 33.7756 -111.5428 225° Southwest 225 259 10,000 -480 Descending Albuquerque Center
10:48AM 33.7381 -111.5903 226° Southwest 198 228 9,700 -540 Descending Albuquerque Center
10:49AM 33.7067 -111.6422 234° Southwest 195 224 9,000 -360 Descending Albuquerque Center
10:50AM 33.6744 -111.7003 236° Southwest 205 236 9,000  Level Albuquerque Center
10:51AM 33.6408 -111.7631 237° Southwest 218 251 9,000  Level Albuquerque Center
10:52AM 33.6075 -111.8264 238° Southwest 221 254 9,000  Level Albuquerque Center
10:53AM 33.5747 -111.8900 238° Southwest 222 255 9,000  Level Albuquerque Center
10:54AM 33.5411 -111.9547 238° Southwest 225 259 9,000 -180 Level Albuquerque Center
10:55AM 33.4756 -111.9964 208° Southwest 230 265 8,700 -540 Descending Albuquerque Center
10:56AM 33.4144 -112.0222 199° South 230 265 7,900 -780 Descending Albuquerque Center
10:57AM 33.3533 -112.0486 200° South 231 266 7,100 -480 Descending Albuquerque Center
10:58AM 33.3328 -112.1050 246° West 207 238 7,000 -300 Descending Albuquerque Center
10:59AM 33.3322 -112.1675 269° West 195 224 6,500 -540 Descending Albuquerque Center
11:01AM 33.3489 -112.2264 289° West 188 216 6,000 -540 Descending Albuquerque Center
11:02AM 33.3983 -112.2425 345° North 194 223 5,400 -540 Descending Albuquerque Center
11:03AM 33.4247 -112.1894 59° Northeast 186 214 5,000 -300 Descending Albuquerque Center
11:04AM 33.4317 -112.1356 81° East 178 205 4,900 -780 Descending Albuquerque Center
11:05AM 33.4283 -112.0811 94° East 169 194 3,500 -1,500 Descending Albuquerque Center
11:06AM 33.4294 -112.0436 88° East 120 138 1,900 -1,140 Descending Albuquerque Center
11:07AM 33.4286 -112.0128 92° East 82 94 1,200 -720 Descending Albuquerque Center